sensor_id;sensor_type;location;lat;lon;timestamp;temperature;humidity
25410;DHT22;13339;50.840;4.346;2022-09-21T00:00:36;14.20;99.90
25410;DHT22;13339;50.840;4.346;2022-09-21T00:03:03;14.20;99.90
25410;DHT22;13339;50.840;4.346;2022-09-21T00:05:28;14.20;99.90
25410;DHT22;13339;50.840;4.346;2022-09-21T00:07:54;14.10;99.90
25410;DHT22;13339;50.840;4.346;2022-09-21T00:10:20;14.20;99.90
25410;DHT22;13339;50.840;4.346;2022-09-21T00:12:47;14.20;99.90
25410;DHT22;13339;50.840;4.346;2022-09-21T00:15:14;14.20;99.90
25410;DHT22;13339;50.840;4.346;2022-09-21T00:17:42;14.10;99.90
25410;DHT22;13339;50.840;4.346;2022-09-21T00:20:08;14.10;99.90
25410;DHT22;13339;50.840;4.346;2022-09-21T00:22:34;14.10;99.90
25410;DHT22;13339;50.840;4.346;2022-09-21T00:25:00;14.10;99.90
25410;DHT22;13339;50.840;4.346;2022-09-21T00:27:29;14.10;99.90
25410;DHT22;13339;50.840;4.346;2022-09-21T00:29:59;14.10;99.90
25410;DHT22;13339;50.840;4.346;2022-09-21T00:32:27;14.20;99.90
25410;DHT22;13339;50.840;4.346;2022-09-21T00:34:52;14.10;99.90
25410;DHT22;13339;50.840;4.346;2022-09-21T00:37:19;14.10;99.90
25410;DHT22;13339;50.840;4.346;2022-09-21T00:39:45;14.00;99.90
25410;DHT22;13339;50.840;4.346;2022-09-21T00:42:19;14.00;99.90
25410;DHT22;13339;50.840;4.346;2022-09-21T00:44:45;14.00;99.90
25410;DHT22;13339;50.840;4.346;2022-09-21T00:47:16;14.00;99.90
25410;DHT22;13339;50.840;4.346;2022-09-21T00:49:46;14.00;99.90
25410;DHT22;13339;50.840;4.346;2022-09-21T00:52:14;14.00;99.90
25410;DHT22;13339;50.840;4.346;2022-09-21T00:54:59;14.00;99.90
25410;DHT22;13339;50.840;4.346;2022-09-21T00:57:28;14.00;99.90
25410;DHT22;13339;50.840;4.346;2022-09-21T01:00:02;14.00;99.90
25410;DHT22;13339;50.840;4.346;2022-09-21T01:02:28;14.00;99.90
25410;DHT22;13339;50.840;4.346;2022-09-21T01:04:54;14.00;99.90
25410;DHT22;13339;50.840;4.346;2022-09-21T01:07:27;13.90;99.90
25410;DHT22;13339;50.840;4.346;2022-09-21T01:09:56;13.90;99.90
25410;DHT22;13339;50.840;4.346;2022-09-21T01:20:25;13.80;99.90
25410;DHT22;13339;50.840;4.346;2022-09-21T01:31:41;13.70;99.90
25410;DHT22;13339;50.840;4.346;2022-09-21T01:35:02;13.80;99.90
25410;DHT22;13339;50.840;4.346;2022-09-21T01:37:08;13.60;99.90
25410;DHT22;13339;50.840;4.346;2022-09-21T01:39:36;13.20;99.90
25410;DHT22;13339;50.840;4.346;2022-09-21T01:42:05;13.30;99.90
25410;DHT22;13339;50.840;4.346;2022-09-21T01:44:33;13.50;99.90
25410;DHT22;13339;50.840;4.346;2022-09-21T01:47:02;13.40;99.90
25410;DHT22;13339;50.840;4.346;2022-09-21T01:49:47;13.40;99.90
25410;DHT22;13339;50.840;4.346;2022-09-21T01:52:35;13.50;99.90
25410;DHT22;13339;50.840;4.346;2022-09-21T01:55:09;13.10;99.90
25410;DHT22;13339;50.840;4.346;2022-09-21T01:58:01;13.20;99.90
25410;DHT22;13339;50.840;4.346;2022-09-21T02:00:31;13.10;99.90
25410;DHT22;13339;50.840;4.346;2022-09-21T02:03:43;13.20;99.90
25410;DHT22;13339;50.840;4.346;2022-09-21T02:06:01;12.90;99.90
25410;DHT22;13339;50.840;4.346;2022-09-21T02:08:29;13.10;99.90
25410;DHT22;13339;50.840;4.346;2022-09-21T02:10:56;13.10;99.90
25410;DHT22;13339;50.840;4.346;2022-09-21T02:13:24;13.20;99.90
25410;DHT22;13339;50.840;4.346;2022-09-21T02:19:04;13.10;99.90
25410;DHT22;13339;50.840;4.346;2022-09-21T02:21:55;13.30;99.90
25410;DHT22;13339;50.840;4.346;2022-09-21T02:24:42;13.30;99.90
25410;DHT22;13339;50.840;4.346;2022-09-21T02:27:13;13.20;99.90
25410;DHT22;13339;50.840;4.346;2022-09-21T02:30:03;13.20;99.90
25410;DHT22;13339;50.840;4.346;2022-09-21T02:35:34;13.20;99.90
25410;DHT22;13339;50.840;4.346;2022-09-21T02:43:46;13.20;99.90
25410;DHT22;13339;50.840;4.346;2022-09-21T02:46:18;13.20;99.90
25410;DHT22;13339;50.840;4.346;2022-09-21T02:48:50;13.30;99.90
25410;DHT22;13339;50.840;4.346;2022-09-21T02:51:21;13.30;99.90
25410;DHT22;13339;50.840;4.346;2022-09-21T02:53:51;13.20;99.90
25410;DHT22;13339;50.840;4.346;2022-09-21T02:56:18;13.20;99.90
25410;DHT22;13339;50.840;4.346;2022-09-21T02:58:49;13.10;99.90
25410;DHT22;13339;50.840;4.346;2022-09-21T03:01:16;13.20;99.90
25410;DHT22;13339;50.840;4.346;2022-09-21T03:03:42;13.00;99.90
25410;DHT22;13339;50.840;4.346;2022-09-21T03:06:09;13.00;99.90
25410;DHT22;13339;50.840;4.346;2022-09-21T03:08:35;13.10;99.90
25410;DHT22;13339;50.840;4.346;2022-09-21T03:11:00;13.10;99.90
25410;DHT22;13339;50.840;4.346;2022-09-21T03:13:27;13.10;99.90
25410;DHT22;13339;50.840;4.346;2022-09-21T03:16:05;13.00;99.90
25410;DHT22;13339;50.840;4.346;2022-09-21T03:18:32;12.70;99.90
25410;DHT22;13339;50.840;4.346;2022-09-21T03:20:58;12.70;99.90
25410;DHT22;13339;50.840;4.346;2022-09-21T03:23:24;12.80;99.90
25410;DHT22;13339;50.840;4.346;2022-09-21T03:25:50;12.80;99.90
25410;DHT22;13339;50.840;4.346;2022-09-21T03:28:20;12.70;99.90
25410;DHT22;13339;50.840;4.346;2022-09-21T03:30:48;12.70;99.90
25410;DHT22;13339;50.840;4.346;2022-09-21T03:33:14;12.70;99.90
25410;DHT22;13339;50.840;4.346;2022-09-21T03:35:39;12.90;99.90
25410;DHT22;13339;50.840;4.346;2022-09-21T03:38:05;12.90;99.90
25410;DHT22;13339;50.840;4.346;2022-09-21T03:40:31;13.00;99.90
25410;DHT22;13339;50.840;4.346;2022-09-21T03:42:57;12.90;99.90
25410;DHT22;13339;50.840;4.346;2022-09-21T03:45:23;12.90;99.90
25410;DHT22;13339;50.840;4.346;2022-09-21T03:47:56;12.90;99.90
25410;DHT22;13339;50.840;4.346;2022-09-21T03:50:24;12.90;99.90
25410;DHT22;13339;50.840;4.346;2022-09-21T03:52:50;12.90;99.90
25410;DHT22;13339;50.840;4.346;2022-09-21T03:55:16;12.90;99.90
25410;DHT22;13339;50.840;4.346;2022-09-21T03:57:41;12.90;99.90
25410;DHT22;13339;50.840;4.346;2022-09-21T04:00:09;12.90;99.90
25410;DHT22;13339;50.840;4.346;2022-09-21T04:02:38;12.90;99.90
25410;DHT22;13339;50.840;4.346;2022-09-21T04:05:09;12.60;99.90
25410;DHT22;13339;50.840;4.346;2022-09-21T04:07:35;12.60;99.90
25410;DHT22;13339;50.840;4.346;2022-09-21T04:10:02;12.50;99.90
25410;DHT22;13339;50.840;4.346;2022-09-21T04:12:28;12.60;99.90
25410;DHT22;13339;50.840;4.346;2022-09-21T04:14:53;12.70;99.90
25410;DHT22;13339;50.840;4.346;2022-09-21T04:17:19;12.70;99.90
25410;DHT22;13339;50.840;4.346;2022-09-21T04:19:44;12.80;99.90
25410;DHT22;13339;50.840;4.346;2022-09-21T04:22:11;12.60;99.90
25410;DHT22;13339;50.840;4.346;2022-09-21T04:24:39;12.50;99.90
25410;DHT22;13339;50.840;4.346;2022-09-21T04:27:08;12.40;99.90
25410;DHT22;13339;50.840;4.346;2022-09-21T04:29:34;12.40;99.90
25410;DHT22;13339;50.840;4.346;2022-09-21T04:32:00;12.40;99.90
25410;DHT22;13339;50.840;4.346;2022-09-21T04:34:26;12.40;99.90
25410;DHT22;13339;50.840;4.346;2022-09-21T04:36:51;12.30;99.90
25410;DHT22;13339;50.840;4.346;2022-09-21T04:39:19;12.30;99.90
25410;DHT22;13339;50.840;4.346;2022-09-21T04:41:44;12.40;99.90
25410;DHT22;13339;50.840;4.346;2022-09-21T04:44:10;12.50;99.90
25410;DHT22;13339;50.840;4.346;2022-09-21T04:46:36;12.60;99.90
25410;DHT22;13339;50.840;4.346;2022-09-21T04:49:02;12.60;99.90
25410;DHT22;13339;50.840;4.346;2022-09-21T04:51:28;12.60;99.90
25410;DHT22;13339;50.840;4.346;2022-09-21T04:53:54;12.60;99.90
25410;DHT22;13339;50.840;4.346;2022-09-21T04:56:19;12.60;99.90
25410;DHT22;13339;50.840;4.346;2022-09-21T04:58:45;12.60;99.90
25410;DHT22;13339;50.840;4.346;2022-09-21T05:01:11;12.60;99.90
25410;DHT22;13339;50.840;4.346;2022-09-21T05:03:37;12.60;99.90
25410;DHT22;13339;50.840;4.346;2022-09-21T05:06:03;12.70;99.90
25410;DHT22;13339;50.840;4.346;2022-09-21T05:08:29;12.70;99.90
25410;DHT22;13339;50.840;4.346;2022-09-21T05:11:15;12.60;99.90
25410;DHT22;13339;50.840;4.346;2022-09-21T05:13:42;12.70;99.90
25410;DHT22;13339;50.840;4.346;2022-09-21T05:16:08;12.70;99.90
25410;DHT22;13339;50.840;4.346;2022-09-21T05:18:34;12.80;99.90
25410;DHT22;13339;50.840;4.346;2022-09-21T05:21:01;12.80;99.90
25410;DHT22;13339;50.840;4.346;2022-09-21T05:23:27;12.80;99.90
25410;DHT22;13339;50.840;4.346;2022-09-21T05:25:55;12.80;99.90
25410;DHT22;13339;50.840;4.346;2022-09-21T05:28:21;12.70;99.90
25410;DHT22;13339;50.840;4.346;2022-09-21T05:30:56;12.60;99.90
25410;DHT22;13339;50.840;4.346;2022-09-21T05:33:25;12.60;99.90
25410;DHT22;13339;50.840;4.346;2022-09-21T05:36:02;12.20;99.90
25410;DHT22;13339;50.840;4.346;2022-09-21T05:38:31;12.10;99.90
25410;DHT22;13339;50.840;4.346;2022-09-21T05:40:57;12.20;99.90
25410;DHT22;13339;50.840;4.346;2022-09-21T05:43:23;12.20;99.90
25410;DHT22;13339;50.840;4.346;2022-09-21T05:46:01;12.30;99.90
25410;DHT22;13339;50.840;4.346;2022-09-21T05:48:32;12.30;99.90
25410;DHT22;13339;50.840;4.346;2022-09-21T05:51:02;12.40;99.90
25410;DHT22;13339;50.840;4.346;2022-09-21T05:53:44;12.50;99.90
25410;DHT22;13339;50.840;4.346;2022-09-21T06:01:58;12.40;99.90
25410;DHT22;13339;50.840;4.346;2022-09-21T06:04:25;12.70;99.90
25410;DHT22;13339;50.840;4.346;2022-09-21T06:06:50;12.50;99.90
25410;DHT22;13339;50.840;4.346;2022-09-21T06:09:16;12.50;99.90
25410;DHT22;13339;50.840;4.346;2022-09-21T06:11:42;12.50;99.90
25410;DHT22;13339;50.840;4.346;2022-09-21T06:14:08;12.50;99.90
25410;DHT22;13339;50.840;4.346;2022-09-21T06:16:41;12.50;99.90
25410;DHT22;13339;50.840;4.346;2022-09-21T06:19:10;12.60;99.90
25410;DHT22;13339;50.840;4.346;2022-09-21T06:21:36;12.60;99.90
25410;DHT22;13339;50.840;4.346;2022-09-21T06:24:02;12.60;99.90
25410;DHT22;13339;50.840;4.346;2022-09-21T06:26:27;12.80;99.90
25410;DHT22;13339;50.840;4.346;2022-09-21T06:28:53;12.80;99.90
25410;DHT22;13339;50.840;4.346;2022-09-21T06:31:19;12.90;99.90
25410;DHT22;13339;50.840;4.346;2022-09-21T06:33:44;12.90;99.90
25410;DHT22;13339;50.840;4.346;2022-09-21T06:36:10;12.90;99.90
25410;DHT22;13339;50.840;4.346;2022-09-21T06:38:36;12.90;99.90
25410;DHT22;13339;50.840;4.346;2022-09-21T06:41:03;12.90;99.90
25410;DHT22;13339;50.840;4.346;2022-09-21T06:43:29;13.00;99.90
25410;DHT22;13339;50.840;4.346;2022-09-21T06:45:56;12.90;99.90
25410;DHT22;13339;50.840;4.346;2022-09-21T06:48:22;13.00;99.90
25410;DHT22;13339;50.840;4.346;2022-09-21T06:50:48;13.10;99.90
25410;DHT22;13339;50.840;4.346;2022-09-21T06:53:14;13.10;99.90
25410;DHT22;13339;50.840;4.346;2022-09-21T06:55:40;13.10;99.90
25410;DHT22;13339;50.840;4.346;2022-09-21T06:58:06;13.10;99.90
25410;DHT22;13339;50.840;4.346;2022-09-21T07:00:32;13.20;99.90
25410;DHT22;13339;50.840;4.346;2022-09-21T07:02:58;13.20;99.90
25410;DHT22;13339;50.840;4.346;2022-09-21T07:05:24;13.20;99.90
25410;DHT22;13339;50.840;4.346;2022-09-21T07:07:50;13.30;99.90
25410;DHT22;13339;50.840;4.346;2022-09-21T07:10:16;13.30;99.90
25410;DHT22;13339;50.840;4.346;2022-09-21T07:12:42;13.40;99.90
25410;DHT22;13339;50.840;4.346;2022-09-21T07:15:09;13.50;99.90
25410;DHT22;13339;50.840;4.346;2022-09-21T07:17:37;13.50;99.90
25410;DHT22;13339;50.840;4.346;2022-09-21T07:20:04;13.50;99.90
25410;DHT22;13339;50.840;4.346;2022-09-21T07:22:31;13.40;99.90
25410;DHT22;13339;50.840;4.346;2022-09-21T07:24:57;13.40;99.90
25410;DHT22;13339;50.840;4.346;2022-09-21T07:27:24;13.40;99.90
25410;DHT22;13339;50.840;4.346;2022-09-21T07:29:50;13.50;99.90
25410;DHT22;13339;50.840;4.346;2022-09-21T07:32:16;13.40;99.90
25410;DHT22;13339;50.840;4.346;2022-09-21T07:34:42;13.10;99.90
25410;DHT22;13339;50.840;4.346;2022-09-21T07:37:08;13.10;99.90
25410;DHT22;13339;50.840;4.346;2022-09-21T07:39:33;13.10;99.90
25410;DHT22;13339;50.840;4.346;2022-09-21T07:42:00;13.30;99.90
25410;DHT22;13339;50.840;4.346;2022-09-21T07:44:26;13.40;99.90
25410;DHT22;13339;50.840;4.346;2022-09-21T07:46:52;13.50;99.90
25410;DHT22;13339;50.840;4.346;2022-09-21T07:49:17;13.60;99.90
25410;DHT22;13339;50.840;4.346;2022-09-21T07:51:43;13.80;99.90
25410;DHT22;13339;50.840;4.346;2022-09-21T07:54:09;14.30;99.90
25410;DHT22;13339;50.840;4.346;2022-09-21T07:56:38;15.20;99.90
25410;DHT22;13339;50.840;4.346;2022-09-21T07:59:04;16.10;99.90
25410;DHT22;13339;50.840;4.346;2022-09-21T08:01:37;17.10;99.90
25410;DHT22;13339;50.840;4.346;2022-09-21T08:04:05;17.60;99.90
25410;DHT22;13339;50.840;4.346;2022-09-21T08:06:32;17.80;99.90
25410;DHT22;13339;50.840;4.346;2022-09-21T08:08:59;17.80;99.90
25410;DHT22;13339;50.840;4.346;2022-09-21T08:11:26;17.80;99.90
25410;DHT22;13339;50.840;4.346;2022-09-21T08:13:54;17.40;99.90
25410;DHT22;13339;50.840;4.346;2022-09-21T08:16:20;17.40;99.90
25410;DHT22;13339;50.840;4.346;2022-09-21T08:18:47;17.10;99.90
25410;DHT22;13339;50.840;4.346;2022-09-21T08:21:13;16.90;99.90
25410;DHT22;13339;50.840;4.346;2022-09-21T08:23:38;16.70;99.90
25410;DHT22;13339;50.840;4.346;2022-09-21T08:26:07;16.60;99.90
25410;DHT22;13339;50.840;4.346;2022-09-21T08:28:35;16.50;99.90
25410;DHT22;13339;50.840;4.346;2022-09-21T08:31:03;16.50;99.90
25410;DHT22;13339;50.840;4.346;2022-09-21T08:33:29;16.50;99.90
25410;DHT22;13339;50.840;4.346;2022-09-21T08:35:57;16.50;99.90
25410;DHT22;13339;50.840;4.346;2022-09-21T08:38:24;16.50;99.90
25410;DHT22;13339;50.840;4.346;2022-09-21T08:40:51;16.00;99.90
25410;DHT22;13339;50.840;4.346;2022-09-21T08:43:38;15.80;99.90
25410;DHT22;13339;50.840;4.346;2022-09-21T08:46:08;15.80;99.90
25410;DHT22;13339;50.840;4.346;2022-09-21T08:48:39;15.80;99.90
25410;DHT22;13339;50.840;4.346;2022-09-21T08:51:08;15.90;99.90
25410;DHT22;13339;50.840;4.346;2022-09-21T08:53:39;15.90;99.90
25410;DHT22;13339;50.840;4.346;2022-09-21T08:56:14;16.10;99.90
25410;DHT22;13339;50.840;4.346;2022-09-21T08:58:41;16.20;99.90
25410;DHT22;13339;50.840;4.346;2022-09-21T09:04:22;16.30;99.90
25410;DHT22;13339;50.840;4.346;2022-09-21T09:07:06;16.50;99.90
25410;DHT22;13339;50.840;4.346;2022-09-21T09:18:10;16.60;99.90
25410;DHT22;13339;50.840;4.346;2022-09-21T09:20:46;16.50;99.90
25410;DHT22;13339;50.840;4.346;2022-09-21T09:23:24;16.70;99.90
25410;DHT22;13339;50.840;4.346;2022-09-21T09:25:55;16.80;99.90
25410;DHT22;13339;50.840;4.346;2022-09-21T09:33:42;17.20;99.90
25410;DHT22;13339;50.840;4.346;2022-09-21T09:36:10;17.20;99.90
25410;DHT22;13339;50.840;4.346;2022-09-21T09:41:45;17.00;99.90
25410;DHT22;13339;50.840;4.346;2022-09-21T09:47:07;16.80;99.90
25410;DHT22;13339;50.840;4.346;2022-09-21T09:52:19;16.90;99.90
25410;DHT22;13339;50.840;4.346;2022-09-21T09:54:45;17.10;99.90
25410;DHT22;13339;50.840;4.346;2022-09-21T09:57:11;17.10;99.90
25410;DHT22;13339;50.840;4.346;2022-09-21T09:59:50;17.20;99.90
25410;DHT22;13339;50.840;4.346;2022-09-21T10:02:21;17.40;99.90
25410;DHT22;13339;50.840;4.346;2022-09-21T10:05:03;17.40;99.90
25410;DHT22;13339;50.840;4.346;2022-09-21T10:07:43;17.30;99.90
25410;DHT22;13339;50.840;4.346;2022-09-21T10:10:34;17.40;99.90
25410;DHT22;13339;50.840;4.346;2022-09-21T10:15:48;17.50;99.90
25410;DHT22;13339;50.840;4.346;2022-09-21T10:18:19;17.40;99.90
25410;DHT22;13339;50.840;4.346;2022-09-21T10:20:59;17.40;99.90
25410;DHT22;13339;50.840;4.346;2022-09-21T10:23:26;17.30;99.90
25410;DHT22;13339;50.840;4.346;2022-09-21T10:28:26;17.40;99.90
25410;DHT22;13339;50.840;4.346;2022-09-21T10:31:17;17.50;99.90
25410;DHT22;13339;50.840;4.346;2022-09-21T10:34:11;17.40;99.90
25410;DHT22;13339;50.840;4.346;2022-09-21T10:36:37;17.30;99.90
25410;DHT22;13339;50.840;4.346;2022-09-21T10:42:05;17.50;99.90
25410;DHT22;13339;50.840;4.346;2022-09-21T10:44:49;17.60;99.90
25410;DHT22;13339;50.840;4.346;2022-09-21T10:49:55;18.00;99.90
25410;DHT22;13339;50.840;4.346;2022-09-21T10:52:31;18.00;99.90
25410;DHT22;13339;50.840;4.346;2022-09-21T10:54:57;18.00;99.90
25410;DHT22;13339;50.840;4.346;2022-09-21T10:57:25;18.10;99.90
25410;DHT22;13339;50.840;4.346;2022-09-21T10:59:51;18.20;99.90
25410;DHT22;13339;50.840;4.346;2022-09-21T11:05:17;18.50;99.90
25410;DHT22;13339;50.840;4.346;2022-09-21T11:10:37;18.80;99.90
25410;DHT22;13339;50.840;4.346;2022-09-21T11:13:45;18.70;99.90
25410;DHT22;13339;50.840;4.346;2022-09-21T11:16:52;18.70;99.90
25410;DHT22;13339;50.840;4.346;2022-09-21T11:19:30;18.50;99.90
25410;DHT22;13339;50.840;4.346;2022-09-21T11:24:55;18.50;99.90
25410;DHT22;13339;50.840;4.346;2022-09-21T11:27:37;18.70;99.90
25410;DHT22;13339;50.840;4.346;2022-09-21T11:49:49;19.60;99.90
25410;DHT22;13339;50.840;4.346;2022-09-21T11:58:08;19.50;99.90
25410;DHT22;13339;50.840;4.346;2022-09-21T12:01:09;19.50;99.90
25410;DHT22;13339;50.840;4.346;2022-09-21T12:04:03;19.60;99.90
25410;DHT22;13339;50.840;4.346;2022-09-21T12:10:00;19.80;99.90
25410;DHT22;13339;50.840;4.346;2022-09-21T12:12:39;19.60;99.90
25410;DHT22;13339;50.840;4.346;2022-09-21T12:15:15;19.50;99.90
25410;DHT22;13339;50.840;4.346;2022-09-21T12:17:51;19.50;99.90
25410;DHT22;13339;50.840;4.346;2022-09-21T12:23:04;19.70;99.90
25410;DHT22;13339;50.840;4.346;2022-09-21T12:25:38;19.80;99.90
25410;DHT22;13339;50.840;4.346;2022-09-21T12:28:19;19.90;99.90
25410;DHT22;13339;50.840;4.346;2022-09-21T12:30:49;19.70;99.90
25410;DHT22;13339;50.840;4.346;2022-09-21T12:33:20;19.80;99.90
25410;DHT22;13339;50.840;4.346;2022-09-21T12:36:23;20.00;99.90
25410;DHT22;13339;50.840;4.346;2022-09-21T12:39:26;20.10;99.90
25410;DHT22;13339;50.840;4.346;2022-09-21T12:42:04;20.30;99.90
25410;DHT22;13339;50.840;4.346;2022-09-21T12:47:11;20.50;99.90
25410;DHT22;13339;50.840;4.346;2022-09-21T12:49:41;20.80;99.90
25410;DHT22;13339;50.840;4.346;2022-09-21T12:52:08;21.00;99.90
25410;DHT22;13339;50.840;4.346;2022-09-21T12:54:38;21.00;99.90
25410;DHT22;13339;50.840;4.346;2022-09-21T13:00:08;21.10;99.90
25410;DHT22;13339;50.840;4.346;2022-09-21T13:02:50;21.10;99.90
25410;DHT22;13339;50.840;4.346;2022-09-21T13:08:13;20.20;99.90
25410;DHT22;13339;50.840;4.346;2022-09-21T13:10:44;20.00;99.90
25410;DHT22;13339;50.840;4.346;2022-09-21T13:13:28;20.00;99.90
25410;DHT22;13339;50.840;4.346;2022-09-21T13:15:56;20.00;99.90
25410;DHT22;13339;50.840;4.346;2022-09-21T13:18:26;20.20;99.90
25410;DHT22;13339;50.840;4.346;2022-09-21T13:20:53;20.30;99.90
25410;DHT22;13339;50.840;4.346;2022-09-21T13:23:36;20.50;99.90
25410;DHT22;13339;50.840;4.346;2022-09-21T13:26:08;20.50;99.90
25410;DHT22;13339;50.840;4.346;2022-09-21T13:31:38;20.50;99.90
25410;DHT22;13339;50.840;4.346;2022-09-21T13:34:27;20.50;99.90
25410;DHT22;13339;50.840;4.346;2022-09-21T13:37:13;20.40;99.90
25410;DHT22;13339;50.840;4.346;2022-09-21T13:39:43;20.50;99.90
25410;DHT22;13339;50.840;4.346;2022-09-21T13:47:44;20.30;99.90
25410;DHT22;13339;50.840;4.346;2022-09-21T13:52:51;20.00;99.90
25410;DHT22;13339;50.840;4.346;2022-09-21T13:55:31;20.00;99.90
25410;DHT22;13339;50.840;4.346;2022-09-21T13:58:01;19.60;99.90
25410;DHT22;13339;50.840;4.346;2022-09-21T14:00:49;19.60;99.90
25410;DHT22;13339;50.840;4.346;2022-09-21T14:03:25;19.70;99.90
25410;DHT22;13339;50.840;4.346;2022-09-21T14:05:54;19.90;99.90
25410;DHT22;13339;50.840;4.346;2022-09-21T14:08:29;19.90;99.90
25410;DHT22;13339;50.840;4.346;2022-09-21T14:11:15;19.70;99.90
25410;DHT22;13339;50.840;4.346;2022-09-21T14:13:45;19.20;99.90
25410;DHT22;13339;50.840;4.346;2022-09-21T14:27:43;19.60;99.90
25410;DHT22;13339;50.840;4.346;2022-09-21T14:30:27;19.70;99.90
25410;DHT22;13339;50.840;4.346;2022-09-21T14:35:35;19.70;99.90
25410;DHT22;13339;50.840;4.346;2022-09-21T14:38:15;19.60;99.90
25410;DHT22;13339;50.840;4.346;2022-09-21T14:40:47;19.50;99.90
25410;DHT22;13339;50.840;4.346;2022-09-21T14:43:32;19.50;99.90
25410;DHT22;13339;50.840;4.346;2022-09-21T14:46:16;19.50;99.90
25410;DHT22;13339;50.840;4.346;2022-09-21T15:00:17;19.50;99.90
25410;DHT22;13339;50.840;4.346;2022-09-21T15:02:48;19.50;99.90
25410;DHT22;13339;50.840;4.346;2022-09-21T15:05:55;19.70;99.90
25410;DHT22;13339;50.840;4.346;2022-09-21T15:13:51;20.00;99.90
25410;DHT22;13339;50.840;4.346;2022-09-21T15:16:32;20.00;99.90
25410;DHT22;13339;50.840;4.346;2022-09-21T15:19:27;20.20;99.90
25410;DHT22;13339;50.840;4.346;2022-09-21T15:21:56;20.30;99.90
25410;DHT22;13339;50.840;4.346;2022-09-21T15:24:33;20.30;99.90
25410;DHT22;13339;50.840;4.346;2022-09-21T15:27:14;20.30;99.90
25410;DHT22;13339;50.840;4.346;2022-09-21T15:29:48;20.30;99.90
25410;DHT22;13339;50.840;4.346;2022-09-21T15:32:40;20.40;99.90
25410;DHT22;13339;50.840;4.346;2022-09-21T15:37:48;20.60;99.90
25410;DHT22;13339;50.840;4.346;2022-09-21T15:40:21;20.60;99.90
25410;DHT22;13339;50.840;4.346;2022-09-21T15:46:13;20.90;99.90
25410;DHT22;13339;50.840;4.346;2022-09-21T15:48:24;21.00;99.90
25410;DHT22;13339;50.840;4.346;2022-09-21T15:50:56;20.60;99.90
25410;DHT22;13339;50.840;4.346;2022-09-21T15:53:37;20.30;99.90
25410;DHT22;13339;50.840;4.346;2022-09-21T15:56:05;20.00;99.90
25410;DHT22;13339;50.840;4.346;2022-09-21T15:58:38;19.70;99.90
25410;DHT22;13339;50.840;4.346;2022-09-21T16:01:14;19.50;99.90
25410;DHT22;13339;50.840;4.346;2022-09-21T16:03:41;19.40;99.90
25410;DHT22;13339;50.840;4.346;2022-09-21T16:06:27;19.50;99.90
25410;DHT22;13339;50.840;4.346;2022-09-21T16:08:53;19.40;99.90
25410;DHT22;13339;50.840;4.346;2022-09-21T16:11:32;19.40;99.90
25410;DHT22;13339;50.840;4.346;2022-09-21T16:14:14;19.40;99.90
25410;DHT22;13339;50.840;4.346;2022-09-21T16:22:35;19.20;99.90
25410;DHT22;13339;50.840;4.346;2022-09-21T16:25:02;19.10;99.90
25410;DHT22;13339;50.840;4.346;2022-09-21T16:27:37;19.20;99.90
25410;DHT22;13339;50.840;4.346;2022-09-21T16:30:37;19.10;99.90
25410;DHT22;13339;50.840;4.346;2022-09-21T16:33:37;18.90;99.90
25410;DHT22;13339;50.840;4.346;2022-09-21T16:38:51;18.70;99.90
25410;DHT22;13339;50.840;4.346;2022-09-21T16:41:21;18.50;99.90
25410;DHT22;13339;50.840;4.346;2022-09-21T16:43:47;18.50;99.90
25410;DHT22;13339;50.840;4.346;2022-09-21T16:46:15;18.60;99.90
25410;DHT22;13339;50.840;4.346;2022-09-21T16:48:43;18.60;99.90
25410;DHT22;13339;50.840;4.346;2022-09-21T16:51:13;18.60;99.90
25410;DHT22;13339;50.840;4.346;2022-09-21T16:53:39;18.80;99.90
25410;DHT22;13339;50.840;4.346;2022-09-21T16:56:08;18.90;99.90
25410;DHT22;13339;50.840;4.346;2022-09-21T16:58:35;19.00;99.90
25410;DHT22;13339;50.840;4.346;2022-09-21T17:01:01;19.10;99.90
25410;DHT22;13339;50.840;4.346;2022-09-21T17:03:27;19.10;99.90
25410;DHT22;13339;50.840;4.346;2022-09-21T17:05:55;18.90;99.90
25410;DHT22;13339;50.840;4.346;2022-09-21T17:08:21;19.00;99.90
25410;DHT22;13339;50.840;4.346;2022-09-21T17:10:48;19.00;99.90
25410;DHT22;13339;50.840;4.346;2022-09-21T17:13:13;18.90;99.90
25410;DHT22;13339;50.840;4.346;2022-09-21T17:15:43;18.90;99.90
25410;DHT22;13339;50.840;4.346;2022-09-21T17:18:11;18.80;99.90
25410;DHT22;13339;50.840;4.346;2022-09-21T17:20:42;18.70;99.90
25410;DHT22;13339;50.840;4.346;2022-09-21T17:23:09;18.70;99.90
25410;DHT22;13339;50.840;4.346;2022-09-21T17:25:35;18.70;99.90
25410;DHT22;13339;50.840;4.346;2022-09-21T17:28:02;18.70;99.90
25410;DHT22;13339;50.840;4.346;2022-09-21T17:30:28;18.70;99.90
25410;DHT22;13339;50.840;4.346;2022-09-21T17:32:54;18.60;99.90
25410;DHT22;13339;50.840;4.346;2022-09-21T17:37:46;18.60;99.90
25410;DHT22;13339;50.840;4.346;2022-09-21T17:40:12;18.60;99.90
25410;DHT22;13339;50.840;4.346;2022-09-21T17:42:40;18.60;99.90
25410;DHT22;13339;50.840;4.346;2022-09-21T17:47:38;18.60;99.90
25410;DHT22;13339;50.840;4.346;2022-09-21T17:52:36;18.50;99.90
25410;DHT22;13339;50.840;4.346;2022-09-21T17:55:21;18.60;99.90
25410;DHT22;13339;50.840;4.346;2022-09-21T18:03:27;18.50;99.90
25410;DHT22;13339;50.840;4.346;2022-09-21T18:05:55;18.50;99.90
25410;DHT22;13339;50.840;4.346;2022-09-21T18:08:29;18.40;99.90
25410;DHT22;13339;50.840;4.346;2022-09-21T18:11:30;18.40;99.90
25410;DHT22;13339;50.840;4.346;2022-09-21T18:17:26;18.50;99.90
25410;DHT22;13339;50.840;4.346;2022-09-21T18:20:22;18.30;99.90
25410;DHT22;13339;50.840;4.346;2022-09-21T18:25:27;18.30;99.90
25410;DHT22;13339;50.840;4.346;2022-09-21T18:27:54;18.30;99.90
25410;DHT22;13339;50.840;4.346;2022-09-21T18:30:23;18.30;99.90
25410;DHT22;13339;50.840;4.346;2022-09-21T18:33:43;18.30;99.90
25410;DHT22;13339;50.840;4.346;2022-09-21T18:36:30;18.30;99.90
25410;DHT22;13339;50.840;4.346;2022-09-21T18:39:31;18.10;99.90
25410;DHT22;13339;50.840;4.346;2022-09-21T18:42:21;18.10;99.90
25410;DHT22;13339;50.840;4.346;2022-09-21T18:44:55;18.10;99.90
25410;DHT22;13339;50.840;4.346;2022-09-21T18:50:24;18.10;99.90
25410;DHT22;13339;50.840;4.346;2022-09-21T18:55:29;18.10;99.90
25410;DHT22;13339;50.840;4.346;2022-09-21T18:57:58;18.00;99.90
25410;DHT22;13339;50.840;4.346;2022-09-21T19:00:26;17.90;99.90
25410;DHT22;13339;50.840;4.346;2022-09-21T19:02:56;17.90;99.90
25410;DHT22;13339;50.840;4.346;2022-09-21T19:05:22;17.80;99.90
25410;DHT22;13339;50.840;4.346;2022-09-21T19:08:05;17.90;99.90
25410;DHT22;13339;50.840;4.346;2022-09-21T19:10:42;17.70;99.90
25410;DHT22;13339;50.840;4.346;2022-09-21T19:13:21;17.70;99.90
25410;DHT22;13339;50.840;4.346;2022-09-21T19:22:04;17.60;99.90
25410;DHT22;13339;50.840;4.346;2022-09-21T19:24:30;17.50;99.90